sensor_id;sensor_type;location;lat;lon;timestamp;pressure;altitude;pressure_sealevel;temperature;humidity
26083;BME280;13848;49.018;12.078;2023-01-28T00:00:54;98142.41;;;1.27;75.76
26083;BME280;13848;49.018;12.078;2023-01-28T00:03:20;98140.97;;;0.97;74.21
26083;BME280;13848;49.018;12.078;2023-01-28T00:05:46;98141.16;;;0.86;74.50
26083;BME280;13848;49.018;12.078;2023-01-28T00:08:12;98143.22;;;0.92;74.07
26083;BME280;13848;49.018;12.078;2023-01-28T00:10:39;98134.38;;;1.01;73.81
26083;BME280;13848;49.018;12.078;2023-01-28T00:13:06;98137.47;;;0.97;73.86
26083;BME280;13848;49.018;12.078;2023-01-28T00:15:32;98134.75;;;0.89;73.92
26083;BME280;13848;49.018;12.078;2023-01-28T00:17:58;98144.66;;;0.87;74.44
26083;BME280;13848;49.018;12.078;2023-01-28T00:20:24;98149.00;;;0.88;74.16
26083;BME280;13848;49.018;12.078;2023-01-28T00:22:50;98138.69;;;0.85;74.81
26083;BME280;13848;49.018;12.078;2023-01-28T00:25:16;98147.03;;;0.90;74.58
26083;BME280;13848;49.018;12.078;2023-01-28T00:27:43;98141.72;;;0.90;74.25
26083;BME280;13848;49.018;12.078;2023-01-28T00:30:10;98152.63;;;0.87;74.29
26083;BME280;13848;49.018;12.078;2023-01-28T00:32:36;98140.88;;;0.89;74.82
26083;BME280;13848;49.018;12.078;2023-01-28T00:35:02;98151.50;;;0.89;74.71
26083;BME280;13848;49.018;12.078;2023-01-28T00:37:28;98147.91;;;0.80;74.75
26083;BME280;13848;49.018;12.078;2023-01-28T00:39:54;98152.63;;;0.87;74.55
26083;BME280;13848;49.018;12.078;2023-01-28T00:42:20;98154.31;;;0.88;74.47
26083;BME280;13848;49.018;12.078;2023-01-28T00:44:47;98154.84;;;0.91;75.36
26083;BME280;13848;49.018;12.078;2023-01-28T00:47:13;98155.44;;;0.85;75.56
26083;BME280;13848;49.018;12.078;2023-01-28T00:49:39;98148.69;;;0.91;75.21
26083;BME280;13848;49.018;12.078;2023-01-28T00:52:05;98152.97;;;0.74;75.33
26083;BME280;13848;49.018;12.078;2023-01-28T00:54:30;98150.88;;;0.77;75.01
26083;BME280;13848;49.018;12.078;2023-01-28T00:56:56;98155.19;;;0.78;75.24
26083;BME280;13848;49.018;12.078;2023-01-28T00:59:22;98148.81;;;0.71;76.14
26083;BME280;13848;49.018;12.078;2023-01-28T01:01:50;98153.13;;;0.72;75.72
26083;BME280;13848;49.018;12.078;2023-01-28T01:04:16;98154.66;;;0.75;76.23
26083;BME280;13848;49.018;12.078;2023-01-28T01:06:41;98156.56;;;0.55;75.71
26083;BME280;13848;49.018;12.078;2023-01-28T01:09:09;98151.34;;;0.63;76.04
26083;BME280;13848;49.018;12.078;2023-01-28T01:11:36;98158.03;;;0.67;76.68
26083;BME280;13848;49.018;12.078;2023-01-28T01:14:02;98147.66;;;0.74;75.85
26083;BME280;13848;49.018;12.078;2023-01-28T01:16:30;98157.69;;;0.80;75.31
26083;BME280;13848;49.018;12.078;2023-01-28T01:18:58;98152.75;;;0.67;76.46
26083;BME280;13848;49.018;12.078;2023-01-28T01:21:26;98155.31;;;0.59;76.67
26083;BME280;13848;49.018;12.078;2023-01-28T01:23:52;98154.31;;;0.60;76.07
26083;BME280;13848;49.018;12.078;2023-01-28T01:26:18;98153.88;;;0.65;76.00
26083;BME280;13848;49.018;12.078;2023-01-28T01:28:44;98156.63;;;0.73;76.43
26083;BME280;13848;49.018;12.078;2023-01-28T01:31:12;98158.03;;;0.67;75.71
26083;BME280;13848;49.018;12.078;2023-01-28T01:33:38;98156.63;;;0.73;76.42
26083;BME280;13848;49.018;12.078;2023-01-28T01:36:07;98155.75;;;0.82;75.62
26083;BME280;13848;49.018;12.078;2023-01-28T01:38:33;98161.34;;;0.79;75.11
26083;BME280;13848;49.018;12.078;2023-01-28T01:41:00;98171.94;;;0.79;75.85
26083;BME280;13848;49.018;12.078;2023-01-28T01:43:45;98163.56;;;0.84;75.40
26083;BME280;13848;49.018;12.078;2023-01-28T01:46:23;98164.94;;;0.88;75.77
26083;BME280;13848;49.018;12.078;2023-01-28T01:48:52;98166.78;;;0.77;75.58
26083;BME280;13848;49.018;12.078;2023-01-28T01:51:25;98167.03;;;0.84;75.07
26083;BME280;13848;49.018;12.078;2023-01-28T01:53:54;98166.25;;;0.74;75.85
26083;BME280;13848;49.018;12.078;2023-01-28T01:56:25;98167.72;;;0.86;75.98
26083;BME280;13848;49.018;12.078;2023-01-28T01:58:54;98166.63;;;0.79;75.28
26083;BME280;13848;49.018;12.078;2023-01-28T02:01:24;98174.53;;;0.71;75.81
26083;BME280;13848;49.018;12.078;2023-01-28T02:03:55;98179.28;;;0.67;75.62
26083;BME280;13848;49.018;12.078;2023-01-28T02:06:24;98180.66;;;0.71;75.89
26083;BME280;13848;49.018;12.078;2023-01-28T02:08:53;98180.59;;;0.81;75.29
26083;BME280;13848;49.018;12.078;2023-01-28T02:11:19;98178.09;;;0.79;75.92
26083;BME280;13848;49.018;12.078;2023-01-28T02:13:49;98173.19;;;0.85;75.38
26083;BME280;13848;49.018;12.078;2023-01-28T02:16:17;98183.16;;;0.73;75.28
26083;BME280;13848;49.018;12.078;2023-01-28T02:18:43;98184.59;;;0.67;75.62
26083;BME280;13848;49.018;12.078;2023-01-28T02:24:18;98180.94;;;0.68;75.74
26083;BME280;13848;49.018;12.078;2023-01-28T02:27:14;98184.31;;;0.70;75.61
26083;BME280;13848;49.018;12.078;2023-01-28T02:29:49;98182.53;;;0.61;76.38
26083;BME280;13848;49.018;12.078;2023-01-28T02:32:22;98188.22;;;0.66;76.30
26083;BME280;13848;49.018;12.078;2023-01-28T02:34:53;98184.59;;;0.67;76.28
26083;BME280;13848;49.018;12.078;2023-01-28T02:37:24;98184.03;;;0.64;76.17
26083;BME280;13848;49.018;12.078;2023-01-28T02:39:56;98187.81;;;0.61;76.42
26083;BME280;13848;49.018;12.078;2023-01-28T02:42:26;98190.22;;;0.55;76.49
26083;BME280;13848;49.018;12.078;2023-01-28T02:44:55;98192.44;;;0.59;76.72
26083;BME280;13848;49.018;12.078;2023-01-28T02:47:21;98196.09;;;0.58;76.37
26083;BME280;13848;49.018;12.078;2023-01-28T02:49:49;98194.97;;;0.51;75.80
26083;BME280;13848;49.018;12.078;2023-01-28T02:52:35;98197.75;;;0.59;76.63
26083;BME280;13848;49.018;12.078;2023-01-28T02:55:09;98189.91;;;0.58;76.12
26083;BME280;13848;49.018;12.078;2023-01-28T02:57:43;98190.63;;;0.60;76.70
26083;BME280;13848;49.018;12.078;2023-01-28T03:00:16;98196.09;;;0.58;76.53
26083;BME280;13848;49.018;12.078;2023-01-28T03:02:45;98193.72;;;0.55;76.37
26083;BME280;13848;49.018;12.078;2023-01-28T03:05:19;98181.91;;;0.40;77.23
26083;BME280;13848;49.018;12.078;2023-01-28T03:07:48;98188.91;;;0.41;77.58
26083;BME280;13848;49.018;12.078;2023-01-28T03:10:17;98201.28;;;0.50;78.03
26083;BME280;13848;49.018;12.078;2023-01-28T03:12:48;98203.78;;;0.51;77.32
26083;BME280;13848;49.018;12.078;2023-01-28T03:15:19;98197.13;;;0.38;78.74
26083;BME280;13848;49.018;12.078;2023-01-28T03:17:48;98196.88;;;0.31;78.83
26083;BME280;13848;49.018;12.078;2023-01-28T03:20:15;98203.59;;;0.25;78.78
26083;BME280;13848;49.018;12.078;2023-01-28T03:22:44;98202.91;;;0.23;79.93
26083;BME280;13848;49.018;12.078;2023-01-28T03:25:12;98194.22;;;0.41;79.22
26083;BME280;13848;49.018;12.078;2023-01-28T03:27:46;98201.88;;;0.34;79.32
26083;BME280;13848;49.018;12.078;2023-01-28T03:30:19;98198.13;;;0.27;79.32
26083;BME280;13848;49.018;12.078;2023-01-28T03:32:47;98197.72;;;0.32;79.92
26083;BME280;13848;49.018;12.078;2023-01-28T03:35:16;98205.09;;;0.38;80.02
26083;BME280;13848;49.018;12.078;2023-01-28T03:37:44;98203.06;;;0.12;80.32
26083;BME280;13848;49.018;12.078;2023-01-28T03:40:11;98211.53;;;0.35;80.02
26083;BME280;13848;49.018;12.078;2023-01-28T03:42:37;98204.81;;;0.41;79.93
26083;BME280;13848;49.018;12.078;2023-01-28T03:45:04;98205.06;;;0.47;79.86
26083;BME280;13848;49.018;12.078;2023-01-28T03:47:32;98211.28;;;0.19;81.20
26083;BME280;13848;49.018;12.078;2023-01-28T03:49:58;98209.81;;;0.44;80.30
26083;BME280;13848;49.018;12.078;2023-01-28T03:52:27;98213.44;;;0.52;79.99
26083;BME280;13848;49.018;12.078;2023-01-28T03:54:53;98212.44;;;0.53;79.42
26083;BME280;13848;49.018;12.078;2023-01-28T03:57:20;98215.63;;;0.57;78.86
26083;BME280;13848;49.018;12.078;2023-01-28T03:59:53;98212.53;;;0.62;79.31
26083;BME280;13848;49.018;12.078;2023-01-28T04:02:50;98214.78;;;0.57;79.39
26083;BME280;13848;49.018;12.078;2023-01-28T04:05:25;98212.97;;;0.57;79.01
26083;BME280;13848;49.018;12.078;2023-01-28T04:07:57;98214.06;;;0.64;79.21
26083;BME280;13848;49.018;12.078;2023-01-28T04:10:27;98213.69;;;0.59;79.44
26083;BME280;13848;49.018;12.078;2023-01-28T04:12:53;98215.69;;;0.47;79.58
26083;BME280;13848;49.018;12.078;2023-01-28T04:15:20;98215.63;;;0.57;79.07
26083;BME280;13848;49.018;12.078;2023-01-28T04:17:50;98216.72;;;0.64;79.32
26083;BME280;13848;49.018;12.078;2023-01-28T04:20:17;98215.44;;;0.68;78.62
26083;BME280;13848;49.018;12.078;2023-01-28T04:22:48;98225.38;;;0.66;79.25
26083;BME280;13848;49.018;12.078;2023-01-28T04:25:14;98225.38;;;0.66;78.81
26083;BME280;13848;49.018;12.078;2023-01-28T04:27:44;98220.88;;;0.76;78.29
26083;BME280;13848;49.018;12.078;2023-01-28T04:30:13;98230.94;;;0.73;78.15
26083;BME280;13848;49.018;12.078;2023-01-28T04:32:39;98230.38;;;0.69;78.28
26083;BME280;13848;49.018;12.078;2023-01-28T04:35:08;98234.72;;;0.70;78.79
26083;BME280;13848;49.018;12.078;2023-01-28T04:37:35;98238.53;;;0.58;78.05
26083;BME280;13848;49.018;12.078;2023-01-28T04:40:05;98237.81;;;0.56;78.83
26083;BME280;13848;49.018;12.078;2023-01-28T04:42:32;98239.91;;;0.62;78.92
26083;BME280;13848;49.018;12.078;2023-01-28T04:45:04;98231.59;;;0.38;79.04
26083;BME280;13848;49.018;12.078;2023-01-28T04:47:31;98236.34;;;0.44;78.49
26083;BME280;13848;49.018;12.078;2023-01-28T04:49:57;98248.34;;;0.48;78.59
26083;BME280;13848;49.018;12.078;2023-01-28T04:52:25;98240.63;;;0.55;78.98
26083;BME280;13848;49.018;12.078;2023-01-28T04:54:52;98241.63;;;0.53;79.11
26083;BME280;13848;49.018;12.078;2023-01-28T04:57:20;98250.69;;;0.51;78.46
26083;BME280;13848;49.018;12.078;2023-01-28T04:59:46;98248.91;;;0.42;78.26
26083;BME280;13848;49.018;12.078;2023-01-28T05:02:13;98248.91;;;0.42;79.26
26083;BME280;13848;49.018;12.078;2023-01-28T05:04:39;98248.34;;;0.38;79.64
26083;BME280;13848;49.018;12.078;2023-01-28T05:07:09;98240.13;;;0.32;79.65
26083;BME280;13848;49.018;12.078;2023-01-28T05:09:37;98245.03;;;0.26;79.15
26083;BME280;13848;49.018;12.078;2023-01-28T05:12:08;98244.31;;;0.34;79.25
26083;BME280;13848;49.018;12.078;2023-01-28T05:14:34;98245.44;;;0.41;79.26
26083;BME280;13848;49.018;12.078;2023-01-28T05:17:01;98250.84;;;0.40;79.89
26083;BME280;13848;49.018;12.078;2023-01-28T05:19:27;98246.69;;;0.37;79.22
26083;BME280;13848;49.018;12.078;2023-01-28T05:21:56;98247.94;;;0.43;79.98
26083;BME280;13848;49.018;12.078;2023-01-28T05:24:23;98245.72;;;0.38;79.24
26083;BME280;13848;49.018;12.078;2023-01-28T05:26:57;98244.69;;;0.49;79.68
26083;BME280;13848;49.018;12.078;2023-01-28T05:29:26;98253.22;;;0.52;79.06
26083;BME280;13848;49.018;12.078;2023-01-28T05:31:59;98249.16;;;0.48;79.43
26083;BME280;13848;49.018;12.078;2023-01-28T05:34:28;98247.63;;;0.46;79.55
26083;BME280;13848;49.018;12.078;2023-01-28T05:36:58;98251.09;;;0.56;79.25
26083;BME280;13848;49.018;12.078;2023-01-28T05:39:24;98248.88;;;0.51;79.52
26083;BME280;13848;49.018;12.078;2023-01-28T05:41:52;98247.75;;;0.54;79.56
26083;BME280;13848;49.018;12.078;2023-01-28T05:44:19;98245.81;;;0.46;78.87
26083;BME280;13848;49.018;12.078;2023-01-28T05:46:45;98246.09;;;0.53;78.83
26083;BME280;13848;49.018;12.078;2023-01-28T05:49:12;98251.25;;;0.55;79.00
26083;BME280;13848;49.018;12.078;2023-01-28T05:51:41;98255.88;;;0.43;79.42
26083;BME280;13848;49.018;12.078;2023-01-28T05:54:08;98253.66;;;0.38;79.10
26083;BME280;13848;49.018;12.078;2023-01-28T05:56:40;98252.81;;;0.47;79.70
26083;BME280;13848;49.018;12.078;2023-01-28T05:59:10;98249.69;;;0.52;79.33
26083;BME280;13848;49.018;12.078;2023-01-28T06:01:37;98257.66;;;0.52;79.17
26083;BME280;13848;49.018;12.078;2023-01-28T06:04:07;98269.97;;;0.53;78.87
26083;BME280;13848;49.018;12.078;2023-01-28T06:06:39;98262.41;;;0.58;79.04
26083;BME280;13848;49.018;12.078;2023-01-28T06:09:05;98266.19;;;0.56;79.01
26083;BME280;13848;49.018;12.078;2023-01-28T06:11:31;98257.84;;;0.41;79.13
26083;BME280;13848;49.018;12.078;2023-01-28T06:13:58;98272.91;;;0.50;79.30
26083;BME280;13848;49.018;12.078;2023-01-28T06:16:26;98275.56;;;0.50;78.79
26083;BME280;13848;49.018;12.078;2023-01-28T06:18:52;98267.59;;;0.50;79.15
26083;BME280;13848;49.018;12.078;2023-01-28T06:21:21;98279.28;;;0.57;78.91
26083;BME280;13848;49.018;12.078;2023-01-28T06:23:50;98289.63;;;0.60;78.87
26083;BME280;13848;49.018;12.078;2023-01-28T06:26:17;98294.53;;;0.55;78.39
26083;BME280;13848;49.018;12.078;2023-01-28T06:28:45;98295.63;;;0.62;78.34
26083;BME280;13848;49.018;12.078;2023-01-28T06:31:14;98294.63;;;0.63;78.31
26083;BME280;13848;49.018;12.078;2023-01-28T06:33:42;98293.94;;;0.61;78.67
26083;BME280;13848;49.018;12.078;2023-01-28T06:36:11;98294.34;;;0.66;78.47
26083;BME280;13848;49.018;12.078;2023-01-28T06:38:42;98299.38;;;0.69;78.69
26083;BME280;13848;49.018;12.078;2023-01-28T06:41:12;98297.41;;;0.71;78.33
26083;BME280;13848;49.018;12.078;2023-01-28T06:43:39;98311.69;;;0.70;78.17
26083;BME280;13848;49.018;12.078;2023-01-28T06:46:05;98309.44;;;0.66;77.81
26083;BME280;13848;49.018;12.078;2023-01-28T06:48:31;98320.59;;;0.69;78.38
26083;BME280;13848;49.018;12.078;2023-01-28T06:50:59;98319.50;;;0.62;78.80
26083;BME280;13848;49.018;12.078;2023-01-28T06:53:26;98314.34;;;0.70;78.07
26083;BME280;13848;49.018;12.078;2023-01-28T06:55:52;98320.31;;;0.72;77.76
26083;BME280;13848;49.018;12.078;2023-01-28T06:58:24;98323.38;;;0.77;77.95
26083;BME280;13848;49.018;12.078;2023-01-28T07:00:51;98328.56;;;0.69;78.56
26083;BME280;13848;49.018;12.078;2023-01-28T07:03:18;98324.94;;;0.70;78.18
26083;BME280;13848;49.018;12.078;2023-01-28T07:05:45;98332.78;;;0.62;78.75
26083;BME280;13848;49.018;12.078;2023-01-28T07:08:12;98335.84;;;0.67;78.05
26083;BME280;13848;49.018;12.078;2023-01-28T07:10:39;98339.56;;;0.74;77.69
26083;BME280;13848;49.018;12.078;2023-01-28T07:13:11;98338.91;;;0.72;78.04
26083;BME280;13848;49.018;12.078;2023-01-28T07:15:38;98348.41;;;0.65;78.07
26083;BME280;13848;49.018;12.078;2023-01-28T07:18:06;98345.59;;;0.76;78.36
26083;BME280;13848;49.018;12.078;2023-01-28T07:20:33;98347.13;;;0.79;78.01
26083;BME280;13848;49.018;12.078;2023-01-28T07:22:59;98354.50;;;0.85;77.56
26083;BME280;13848;49.018;12.078;2023-01-28T07:25:27;98354.34;;;0.87;77.44
26083;BME280;13848;49.018;12.078;2023-01-28T07:27:56;98360.78;;;0.94;77.86
26083;BME280;13848;49.018;12.078;2023-01-28T07:30:26;98359.63;;;0.96;77.39
26083;BME280;13848;49.018;12.078;2023-01-28T07:32:55;98353.59;;;1.41;82.52
26083;BME280;13848;49.018;12.078;2023-01-28T07:35:22;98356.03;;;1.25;77.74
26083;BME280;13848;49.018;12.078;2023-01-28T07:37:53;98359.03;;;1.12;77.46
26083;BME280;13848;49.018;12.078;2023-01-28T07:40:19;98355.16;;;1.06;76.79
26083;BME280;13848;49.018;12.078;2023-01-28T07:42:49;98362.69;;;1.11;77.12
26083;BME280;13848;49.018;12.078;2023-01-28T07:45:16;98356.53;;;1.11;76.87
26083;BME280;13848;49.018;12.078;2023-01-28T07:47:52;98357.38;;;1.11;76.49
26083;BME280;13848;49.018;12.078;2023-01-28T07:50:19;98358.72;;;1.15;77.07
26083;BME280;13848;49.018;12.078;2023-01-28T07:52:48;98358.72;;;1.15;76.74
26083;BME280;13848;49.018;12.078;2023-01-28T07:55:16;98367.75;;;1.04;76.60
26083;BME280;13848;49.018;12.078;2023-01-28T07:57:52;98364.22;;;1.04;77.23
26083;BME280;13848;49.018;12.078;2023-01-28T08:00:19;98371.34;;;1.03;76.74
26083;BME280;13848;49.018;12.078;2023-01-28T08:02:49;98373.31;;;1.01;77.41
26083;BME280;13848;49.018;12.078;2023-01-28T08:05:16;98379.47;;;1.02;77.20
26083;BME280;13848;49.018;12.078;2023-01-28T08:07:46;98381.44;;;1.00;76.96
26083;BME280;13848;49.018;12.078;2023-01-28T08:10:19;98378.91;;;0.98;77.41
26083;BME280;13848;49.018;12.078;2023-01-28T08:12:57;98377.22;;;1.07;77.00
26083;BME280;13848;49.018;12.078;2023-01-28T08:15:26;98383.34;;;1.17;77.02
26083;BME280;13848;49.018;12.078;2023-01-28T08:17:58;98388.66;;;1.17;76.59
26083;BME280;13848;49.018;12.078;2023-01-28T08:20:29;98388.66;;;1.17;77.11
26083;BME280;13848;49.018;12.078;2023-01-28T08:23:07;98392.00;;;1.19;76.67
26083;BME280;13848;49.018;12.078;2023-01-28T08:25:36;98384.19;;;1.08;77.19
26083;BME280;13848;49.018;12.078;2023-01-28T08:28:05;98387.53;;;1.10;76.65
26083;BME280;13848;49.018;12.078;2023-01-28T08:30:32;98391.19;;;1.09;77.36
26083;BME280;13848;49.018;12.078;2023-01-28T08:33:01;98393.97;;;1.17;77.30
26083;BME280;13848;49.018;12.078;2023-01-28T08:35:34;98391.59;;;1.14;76.67
26083;BME280;13848;49.018;12.078;2023-01-28T08:38:03;98393.06;;;1.26;76.70
26083;BME280;13848;49.018;12.078;2023-01-28T08:40:33;98400.63;;;1.21;77.38
26083;BME280;13848;49.018;12.078;2023-01-28T08:43:02;98393.63;;;1.30;76.63
26083;BME280;13848;49.018;12.078;2023-01-28T08:45:30;98400.63;;;1.21;77.24
26083;BME280;13848;49.018;12.078;2023-01-28T08:47:57;98397.41;;;1.27;76.83
26083;BME280;13848;49.018;12.078;2023-01-28T08:50:27;98392.00;;;1.19;77.05
26083;BME280;13848;49.018;12.078;2023-01-28T08:52:58;98393.38;;;1.23;76.96
26083;BME280;13848;49.018;12.078;2023-01-28T08:55:27;98390.56;;;1.25;76.56
26083;BME280;13848;49.018;12.078;2023-01-28T08:57:54;98390.13;;;1.29;76.81
26083;BME280;13848;49.018;12.078;2023-01-28T09:00:21;98394.47;;;1.30;77.10
26083;BME280;13848;49.018;12.078;2023-01-28T09:02:51;98392.22;;;1.36;76.73
26083;BME280;13848;49.018;12.078;2023-01-28T09:05:18;98397.22;;;1.39;76.71
26083;BME280;13848;49.018;12.078;2023-01-28T09:07:45;98391.47;;;1.43;76.39
26083;BME280;13848;49.018;12.078;2023-01-28T09:10:12;98396.94;;;1.42;76.54
26083;BME280;13848;49.018;12.078;2023-01-28T09:12:38;98397.22;;;1.39;77.18
26083;BME280;13848;49.018;12.078;2023-01-28T09:15:11;98396.34;;;1.48;77.00
26083;BME280;13848;49.018;12.078;2023-01-28T09:17:38;98394.09;;;1.53;76.83
26083;BME280;13848;49.018;12.078;2023-01-28T09:20:10;98401.66;;;1.48;76.75
26083;BME280;13848;49.018;12.078;2023-01-28T09:22:42;98403.34;;;1.49;76.71
26083;BME280;13848;49.018;12.078;2023-01-28T09:25:19;98409.22;;;1.43;76.93
26083;BME280;13848;49.018;12.078;2023-01-28T09:27:52;98410.97;;;1.34;76.98
26083;BME280;13848;49.018;12.078;2023-01-28T09:30:18;98411.09;;;1.32;76.88
26083;BME280;13848;49.018;12.078;2023-01-28T09:32:51;98413.88;;;1.41;77.11
26083;BME280;13848;49.018;12.078;2023-01-28T09:35:20;98415.63;;;1.50;76.41
26083;BME280;13848;49.018;12.078;2023-01-28T09:37:47;98414.75;;;1.59;76.67
26083;BME280;13848;49.018;12.078;2023-01-28T09:40:19;98424.81;;;1.65;76.20
26083;BME280;13848;49.018;12.078;2023-01-28T09:42:56;98420.88;;;1.69;76.57
26083;BME280;13848;49.018;12.078;2023-01-28T09:45:35;98414.84;;;1.67;76.91
26083;BME280;13848;49.018;12.078;2023-01-28T09:48:04;98425.47;;;1.67;76.56
26083;BME280;13848;49.018;12.078;2023-01-28T09:50:36;98416.56;;;1.68;76.68
26083;BME280;13848;49.018;12.078;2023-01-28T09:53:09;98421.88;;;1.68;76.42
26083;BME280;13848;49.018;12.078;2023-01-28T09:55:46;98414.97;;;1.75;76.73
26083;BME280;13848;49.018;12.078;2023-01-28T09:58:21;98415.50;;;1.79;76.15
26083;BME280;13848;49.018;12.078;2023-01-28T10:00:56;98410.66;;;1.74;76.50
26083;BME280;13848;49.018;12.078;2023-01-28T10:03:49;98419.78;;;1.62;76.48
26083;BME280;13848;49.018;12.078;2023-01-28T10:06:42;98414.66;;;1.78;76.49
26083;BME280;13848;49.018;12.078;2023-01-28T10:09:25;98412.56;;;1.82;76.17
26083;BME280;13848;49.018;12.078;2023-01-28T10:12:07;98416.44;;;1.88;75.74
26083;BME280;13848;49.018;12.078;2023-01-28T10:14:56;98425.25;;;1.88;76.13
26083;BME280;13848;49.018;12.078;2023-01-28T10:17:48;98414.38;;;1.81;76.65
26083;BME280;13848;49.018;12.078;2023-01-28T10:20:19;98424.41;;;1.88;75.99
26083;BME280;13848;49.018;12.078;2023-01-28T10:22:49;98416.31;;;1.79;75.97
26083;BME280;13848;49.018;12.078;2023-01-28T10:25:27;98422.19;;;1.83;76.63
26083;BME280;13848;49.018;12.078;2023-01-28T10:27:54;98418.09;;;1.89;76.02
26083;BME280;13848;49.018;12.078;2023-01-28T10:30:24;98425.50;;;1.95;75.85
26083;BME280;13848;49.018;12.078;2023-01-28T10:32:52;98419.78;;;1.90;76.17
26083;BME280;13848;49.018;12.078;2023-01-28T10:35:26;98426.09;;;1.89;76.65
26083;BME280;13848;49.018;12.078;2023-01-28T10:37:59;98420.69;;;1.80;76.52
26083;BME280;13848;49.018;12.078;2023-01-28T10:40:29;98421.97;;;1.76;76.74
26083;BME280;13848;49.018;12.078;2023-01-28T10:42:55;98421.91;;;1.86;77.43
26083;BME280;13848;49.018;12.078;2023-01-28T10:45:25;98424.00;;;2.10;77.05
26083;BME280;13848;49.018;12.078;2023-01-28T10:47:55;98424.25;;;2.17;76.66
26083;BME280;13848;49.018;12.078;2023-01-28T10:50:29;98422.47;;;2.25;76.30
26083;BME280;13848;49.018;12.078;2023-01-28T10:52:59;98423.69;;;2.13;75.64
26083;BME280;13848;49.018;12.078;2023-01-28T10:55:27;98418.09;;;2.16;76.15
26083;BME280;13848;49.018;12.078;2023-01-28T10:57:55;98414.81;;;2.22;75.82
26083;BME280;13848;49.018;12.078;2023-01-28T11:00:25;98418.69;;;2.10;75.95
26083;BME280;13848;49.018;12.078;2023-01-28T11:02:52;98418.97;;;2.07;76.00
26083;BME280;13848;49.018;12.078;2023-01-28T11:05:21;98414.25;;;2.01;76.57
26083;BME280;13848;49.018;12.078;2023-01-28T11:07:48;98418.44;;;2.03;76.64
26083;BME280;13848;49.018;12.078;2023-01-28T11:10:29;98408.69;;;1.94;76.24
26083;BME280;13848;49.018;12.078;2023-01-28T11:12:57;98412.13;;;1.86;76.56
26083;BME280;13848;49.018;12.078;2023-01-28T11:15:23;98405.69;;;1.79;76.92
26083;BME280;13848;49.018;12.078;2023-01-28T11:17:54;98408.69;;;1.94;76.32
26083;BME280;13848;49.018;12.078;2023-01-28T11:20:23;98412.88;;;1.97;76.36
26083;BME280;13848;49.018;12.078;2023-01-28T11:22:50;98412.25;;;2.03;76.49
26083;BME280;13848;49.018;12.078;2023-01-28T11:25:20;98414.09;;;2.02;76.76
26083;BME280;13848;49.018;12.078;2023-01-28T11:27:51;98415.25;;;2.00;76.40
26083;BME280;13848;49.018;12.078;2023-01-28T11:30:21;98412.25;;;1.85;76.87
26083;BME280;13848;49.018;12.078;2023-01-28T11:32:54;98419.69;;;1.81;76.87
26083;BME280;13848;49.018;12.078;2023-01-28T11:35:24;98413.78;;;1.88;77.03
26083;BME280;13848;49.018;12.078;2023-01-28T11:37:50;98416.84;;;1.93;76.85
26083;BME280;13848;49.018;12.078;2023-01-28T11:40:18;98408.53;;;1.96;77.01
26083;BME280;13848;49.018;12.078;2023-01-28T11:42:44;98417.44;;;1.86;77.17
26083;BME280;13848;49.018;12.078;2023-01-28T11:45:15;98409.69;;;1.93;77.16
26083;BME280;13848;49.018;12.078;2023-01-28T11:47:52;98409.97;;;1.90;76.97
26083;BME280;13848;49.018;12.078;2023-01-28T11:50:26;98406.59;;;1.98;77.25
26083;BME280;13848;49.018;12.078;2023-01-28T11:53:11;98402.91;;;1.81;77.67
26083;BME280;13848;49.018;12.078;2023-01-28T11:55:49;98411.19;;;1.96;77.03
26083;BME280;13848;49.018;12.078;2023-01-28T11:58:21;98398.63;;;1.98;77.25
26083;BME280;13848;49.018;12.078;2023-01-28T12:00:59;98396.25;;;1.95;77.15
26083;BME280;13848;49.018;12.078;2023-01-28T12:03:47;98406.94;;;2.03;77.24
26083;BME280;13848;49.018;12.078;2023-01-28T12:06:34;98397.19;;;2.03;77.25
26083;BME280;13848;49.018;12.078;2023-01-28T12:09:14;98392.69;;;2.04;77.16
26083;BME280;13848;49.018;12.078;2023-01-28T12:11:53;98392.91;;;2.10;77.06
26083;BME280;13848;49.018;12.078;2023-01-28T12:14:27;98394.03;;;2.08;77.40
26083;BME280;13848;49.018;12.078;2023-01-28T12:16:59;98402.34;;;2.05;77.10
26083;BME280;13848;49.018;12.078;2023-01-28T12:19:44;98393.75;;;2.11;76.94
26083;BME280;13848;49.018;12.078;2023-01-28T12:22:35;98388.72;;;2.08;77.08
26083;BME280;13848;49.018;12.078;2023-01-28T12:25:18;98391.31;;;2.00;77.10
26083;BME280;13848;49.018;12.078;2023-01-28T12:27:51;98387.88;;;1.90;77.67
26083;BME280;13848;49.018;12.078;2023-01-28T12:30:29;98388.66;;;2.00;77.36
26083;BME280;13848;49.018;12.078;2023-01-28T12:33:14;98387.06;;;2.07;77.02
26083;BME280;13848;49.018;12.078;2023-01-28T12:35:55;98387.59;;;1.93;77.06
26083;BME280;13848;49.018;12.078;2023-01-28T12:38:31;98389.75;;;1.79;77.79
26083;BME280;13848;49.018;12.078;2023-01-28T12:41:06;98385.97;;;1.82;77.72
26083;BME280;13848;49.018;12.078;2023-01-28T12:43:44;98386.72;;;1.74;77.75
26083;BME280;13848;49.018;12.078;2023-01-28T12:46:17;98389.91;;;1.78;77.50
26083;BME280;13848;49.018;12.078;2023-01-28T12:48:51;98386.34;;;1.87;77.93
26083;BME280;13848;49.018;12.078;2023-01-28T12:51:23;98390.53;;;1.90;77.94
26083;BME280;13848;49.018;12.078;2023-01-28T12:53:54;98387.47;;;1.84;77.95
26083;BME280;13848;49.018;12.078;2023-01-28T12:56:24;98387.25;;;1.78;78.40
26083;BME280;13848;49.018;12.078;2023-01-28T12:58:56;98390.34;;;1.73;78.54
26083;BME280;13848;49.018;12.078;2023-01-28T13:01:27;98384.66;;;1.68;78.49
26083;BME280;13848;49.018;12.078;2023-01-28T13:04:00;98386.13;;;1.80;78.27
26083;BME280;13848;49.018;12.078;2023-01-28T13:06:31;98393.50;;;1.86;77.90
26083;BME280;13848;49.018;12.078;2023-01-28T13:09:00;98397.91;;;1.96;77.92
26083;BME280;13848;49.018;12.078;2023-01-28T13:11:32;98394.47;;;1.85;77.99
26083;BME280;13848;49.018;12.078;2023-01-28T13:14:00;98395.94;;;1.98;77.97
26083;BME280;13848;49.018;12.078;2023-01-28T13:16:26;98396.31;;;2.03;77.37
26083;BME280;13848;49.018;12.078;2023-01-28T13:18:52;98390.44;;;1.81;77.69